Cygnus — VRCG3 — position and weather

sailwx.info

Track history (hours):
 
Tides and Currents Weather Stations Pressure Air Temp Water Temp Dewpoint Dewpoint Depression Visibility Wind Speed Wind Dir Waves Ship Positions

Cygnus

Last reported at 2018-May-26 19:18 UTC. Time now 2018-Jun-19 12:26 UTC.
Position N 29°00' W 094°28'.
Warning: this ship's position is 23 days out of date.

Length 183 m; draft 10.9 m.

Type: Tanker. MMSI: 477593700.

Date/timePositionNaut miles runAvg speedWind from/ knotsBaromVisibWave heightAir tempDewpointWater temp
2018-May-26 19:18N 29°00' W 094°28'12 6.4
2018-May-26 17:28N 29°11' W 094°33'0 0.0
2018-May-26 16:58N 29°11' W 094°33'0 0.0
2018-May-26 14:52N 29°11' W 094°33'0 0.0
2018-May-26 13:28N 29°11' W 094°33'0 0.0
2018-May-26 07:28N 29°11' W 094°33'0 0.0
2018-May-26 04:22N 29°11' W 094°33'0 0.0
2018-May-24 14:01N 29°11' W 094°33'0 0.1
2018-May-24 13:58N 29°11' W 094°33'0 0.0
2018-May-23 23:40N 29°11' W 094°33'0 0.0
2018-May-23 01:19N 29°11' W 094°33'0 0.0
2018-May-23 00:37N 29°11' W 094°33'0 0.1
2018-May-23 00:19N 29°11' W 094°33'0 0.0
2018-May-22 23:52N 29°11' W 094°33'0 0.0
2018-May-22 23:10N 29°11' W 094°33'0 0.0
2018-May-22 22:58N 29°11' W 094°33'0 0.0
2018-May-22 20:13N 29°11' W 094°33'0 0.0
2018-May-22 13:55N 29°11' W 094°33'0 0.0
2018-May-22 13:13N 29°11' W 094°33'0 0.0
2018-May-22 12:40N 29°11' W 094°33'13 1.0
2018-May-21 23:18N 28°60' W 094°24'3 8.6
2018-May-21 22:58N 28°57' W 094°24'  
2018-May-19 00:41N 28°35' W 094°13'0 0.0
2018-May-18 14:50N 28°35' W 094°13'0 0.0
2018-May-18 14:23N 28°35' W 094°13'0 0.0
2018-May-18 13:50N 28°35' W 094°13'0 0.0
2018-May-18 13:19N 28°35' W 094°13'0 0.0
2018-May-18 12:59N 28°35' W 094°13'0 0.0
2018-May-18 12:29N 28°35' W 094°13'0 0.0
2018-May-18 11:59N 28°35' W 094°13'0 0.0
2018-May-18 11:29N 28°35' W 094°13'0 0.0
2018-May-18 10:58N 28°35' W 094°13'0 0.0
2018-May-18 10:22N 28°35' W 094°13'0 0.0
2018-May-18 09:55N 28°35' W 094°13'0 0.0
2018-May-18 09:22N 28°35' W 094°13'0 0.0
2018-May-18 08:58N 28°35' W 094°13'0 0.0
2018-May-18 08:19N 28°35' W 094°13'0 0.0
2018-May-18 07:49N 28°35' W 094°13'0 0.0
2018-May-18 06:46N 28°35' W 094°13'0 0.0
2018-May-18 06:22N 28°35' W 094°13'0 0.1
2018-May-18 05:58N 28°35' W 094°13'0 0.0
2018-May-18 05:25N 28°35' W 094°13'0 0.2
2018-May-18 04:58N 28°35' W 094°13'0 0.2
2018-May-18 04:25N 28°35' W 094°13'0 0.0
2018-May-18 03:58N 28°35' W 094°13'1 1.8
2018-May-18 03:30N 28°36' W 094°13'3 6.5
2018-May-18 03:00N 28°39' W 094°15'611.2
2018-May-18 02:30N 28°44' W 094°19'612.3
2018-May-18 02:00N 28°48' W 094°23'612.0
2018-May-18 01:28N 28°54' W 094°25'612.9
2018-May-18 01:00N 29°00' W 094°25'612.8
2018-May-18 00:30N 29°07' W 094°26'713.1
2018-May-18 00:00N 29°12' W 094°30'612.1
2018-May-17 23:30N 29°16' W 094°35'611.7
2018-May-17 23:00N 29°20' W 094°40'3 5.5
2018-May-17 22:30N 29°21' W 094°43'0 0.0
2018-May-17 22:00N 29°21' W 094°43'0 0.0
2018-May-17 21:30N 29°21' W 094°43'0 0.1
2018-May-17 21:00N 29°21' W 094°43'0 0.0
2018-May-17 20:30N 29°21' W 094°43'0 0.0
2018-May-17 20:00N 29°21' W 094°43'0 0.0
2018-May-17 19:30N 29°21' W 094°43'0 0.1
2018-May-17 19:00N 29°21' W 094°43'0 0.0
2018-May-17 18:27N 29°21' W 094°43'0 0.0
2018-May-17 17:54N 29°21' W 094°43'0 0.1
2018-May-17 15:38N 29°21' W 094°43'0 1.0
2018-May-17 15:30N 29°21' W 094°43'4 8.0
2018-May-17 15:00N 29°19' W 094°39'611.4
2018-May-17 14:30N 29°17' W 094°33'5 9.0
2018-May-17 14:00N 29°15' W 094°28'1 1.7
2018-May-17 13:20N 29°16' W 094°27'0 0.0
2018-May-17 12:56N 29°16' W 094°27'0 0.0
2018-May-17 12:26N 29°16' W 094°27'0 0.0
2018-May-17 11:29N 29°16' W 094°27'0 0.0
2018-May-17 09:47N 29°16' W 094°27'0 0.0
2018-May-17 08:59N 29°16' W 094°27'0 0.0
2018-May-17 08:29N 29°16' W 094°27'0 0.0
2018-May-17 07:59N 29°16' W 094°27'0 0.0
2018-May-17 07:29N 29°16' W 094°27'0 0.0
2018-May-17 06:59N 29°16' W 094°27'0 0.0
2018-May-17 06:29N 29°16' W 094°27'0 0.0
2018-May-17 05:56N 29°16' W 094°27'0 0.0
2018-May-17 05:26N 29°16' W 094°27'0 0.0
2018-May-17 04:59N 29°16' W 094°27'0 0.0
2018-May-17 04:29N 29°16' W 094°27'0 0.0
2018-May-17 03:59N 29°16' W 094°27'0 0.0
2018-May-17 03:29N 29°16' W 094°27'0 0.0
2018-May-17 02:59N 29°16' W 094°27'0 0.0
2018-May-17 02:29N 29°16' W 094°27'0 0.0
2018-May-17 01:59N 29°16' W 094°27'0 0.0
2018-May-17 01:29N 29°16' W 094°27'0 0.0
2018-May-17 00:59N 29°16' W 094°27'0 0.0
2018-May-17 00:29N 29°16' W 094°27'0 0.0
2018-May-16 23:59N 29°16' W 094°27'0 0.0
2018-May-16 23:29N 29°16' W 094°27'0 0.0
2018-May-16 22:59N 29°16' W 094°27'0 0.0
2018-May-16 22:29N 29°16' W 094°27'0 0.0
2018-May-16 21:59N 29°16' W 094°27'0 0.0
2018-May-16 21:29N 29°16' W 094°27'0 0.0
2018-May-16 20:59N 29°16' W 094°27'0 0.0
2018-May-16 20:29N 29°16' W 094°27'0 0.1
2018-May-16 19:59N 29°16' W 094°27'0 0.1
2018-May-16 19:29N 29°16' W 094°27'  
Track history (hours):
 
Tides and Currents Weather Stations Pressure Air Temp Water Temp Dewpoint Dewpoint Depression Visibility Wind Speed Wind Dir Waves Ship Positions

Cygnus

Last reported at 2018-May-26 19:18 UTC. Time now 2018-Jun-19 12:26 UTC.
Position N 29°00' W 094°28'.
Warning: this ship's position is 23 days out of date.

Length 183 m; draft 10.9 m.

Type: Tanker. MMSI: 477593700.

Date/timePositionNaut miles runAvg speedWind from/ knotsBaromVisibWave heightAir tempDewpointWater temp
2018-May-26 19:18N 29°00' W 094°28'12 6.4
2018-May-26 17:28N 29°11' W 094°33'0 0.0
2018-May-26 16:58N 29°11' W 094°33'0 0.0
2018-May-26 14:52N 29°11' W 094°33'0 0.0
2018-May-26 13:28N 29°11' W 094°33'0 0.0
2018-May-26 07:28N 29°11' W 094°33'0 0.0
2018-May-26 04:22N 29°11' W 094°33'0 0.0
2018-May-24 14:01N 29°11' W 094°33'0 0.1
2018-May-24 13:58N 29°11' W 094°33'0 0.0
2018-May-23 23:40N 29°11' W 094°33'0 0.0
2018-May-23 01:19N 29°11' W 094°33'0 0.0
2018-May-23 00:37N 29°11' W 094°33'0 0.1
2018-May-23 00:19N 29°11' W 094°33'0 0.0
2018-May-22 23:52N 29°11' W 094°33'0 0.0
2018-May-22 23:10N 29°11' W 094°33'0 0.0
2018-May-22 22:58N 29°11' W 094°33'0 0.0
2018-May-22 20:13N 29°11' W 094°33'0 0.0
2018-May-22 13:55N 29°11' W 094°33'0 0.0
2018-May-22 13:13N 29°11' W 094°33'0 0.0
2018-May-22 12:40N 29°11' W 094°33'13 1.0
2018-May-21 23:18N 28°60' W 094°24'3 8.6
2018-May-21 22:58N 28°57' W 094°24'  
2018-May-19 00:41N 28°35' W 094°13'0 0.0
2018-May-18 14:50N 28°35' W 094°13'0 0.0
2018-May-18 14:23N 28°35' W 094°13'0 0.0
2018-May-18 13:50N 28°35' W 094°13'0 0.0
2018-May-18 13:19N 28°35' W 094°13'0 0.0
2018-May-18 12:59N 28°35' W 094°13'0 0.0
2018-May-18 12:29N 28°35' W 094°13'0 0.0
2018-May-18 11:59N 28°35' W 094°13'0 0.0
2018-May-18 11:29N 28°35' W 094°13'0 0.0
2018-May-18 10:58N 28°35' W 094°13'0 0.0
2018-May-18 10:22N 28°35' W 094°13'0 0.0
2018-May-18 09:55N 28°35' W 094°13'0 0.0
2018-May-18 09:22N 28°35' W 094°13'0 0.0
2018-May-18 08:58N 28°35' W 094°13'0 0.0
2018-May-18 08:19N 28°35' W 094°13'0 0.0
2018-May-18 07:49N 28°35' W 094°13'0 0.0
2018-May-18 06:46N 28°35' W 094°13'0 0.0
2018-May-18 06:22N 28°35' W 094°13'0 0.1
2018-May-18 05:58N 28°35' W 094°13'0 0.0
2018-May-18 05:25N 28°35' W 094°13'0 0.2
2018-May-18 04:58N 28°35' W 094°13'0 0.2
2018-May-18 04:25N 28°35' W 094°13'0 0.0
2018-May-18 03:58N 28°35' W 094°13'1 1.8
2018-May-18 03:30N 28°36' W 094°13'3 6.5
2018-May-18 03:00N 28°39' W 094°15'611.2
2018-May-18 02:30N 28°44' W 094°19'612.3
2018-May-18 02:00N 28°48' W 094°23'612.0
2018-May-18 01:28N 28°54' W 094°25'612.9
2018-May-18 01:00N 29°00' W 094°25'612.8
2018-May-18 00:30N 29°07' W 094°26'713.1
2018-May-18 00:00N 29°12' W 094°30'612.1
2018-May-17 23:30N 29°16' W 094°35'611.7
2018-May-17 23:00N 29°20' W 094°40'3 5.5
2018-May-17 22:30N 29°21' W 094°43'0 0.0
2018-May-17 22:00N 29°21' W 094°43'0 0.0
2018-May-17 21:30N 29°21' W 094°43'0 0.1
2018-May-17 21:00N 29°21' W 094°43'0 0.0
2018-May-17 20:30N 29°21' W 094°43'0 0.0
2018-May-17 20:00N 29°21' W 094°43'0 0.0
2018-May-17 19:30N 29°21' W 094°43'0 0.1
2018-May-17 19:00N 29°21' W 094°43'0 0.0
2018-May-17 18:27N 29°21' W 094°43'0 0.0
2018-May-17 17:54N 29°21' W 094°43'0 0.1
2018-May-17 15:38N 29°21' W 094°43'0 1.0
2018-May-17 15:30N 29°21' W 094°43'4 8.0
2018-May-17 15:00N 29°19' W 094°39'611.4
2018-May-17 14:30N 29°17' W 094°33'5 9.0
2018-May-17 14:00N 29°15' W 094°28'1 1.7
2018-May-17 13:20N 29°16' W 094°27'0 0.0
2018-May-17 12:56N 29°16' W 094°27'0 0.0
2018-May-17 12:26N 29°16' W 094°27'0 0.0
2018-May-17 11:29N 29°16' W 094°27'0 0.0
2018-May-17 09:47N 29°16' W 094°27'0 0.0
2018-May-17 08:59N 29°16' W 094°27'0 0.0
2018-May-17 08:29N 29°16' W 094°27'0 0.0
2018-May-17 07:59N 29°16' W 094°27'0 0.0
2018-May-17 07:29N 29°16' W 094°27'0 0.0
2018-May-17 06:59N 29°16' W 094°27'0 0.0
2018-May-17 06:29N 29°16' W 094°27'0 0.0
2018-May-17 05:56N 29°16' W 094°27'0 0.0
2018-May-17 05:26N 29°16' W 094°27'0 0.0
2018-May-17 04:59N 29°16' W 094°27'0 0.0
2018-May-17 04:29N 29°16' W 094°27'0 0.0
2018-May-17 03:59N 29°16' W 094°27'0 0.0
2018-May-17 03:29N 29°16' W 094°27'0 0.0
2018-May-17 02:59N 29°16' W 094°27'0 0.0
2018-May-17 02:29N 29°16' W 094°27'0 0.0
2018-May-17 01:59N 29°16' W 094°27'0 0.0
2018-May-17 01:29N 29°16' W 094°27'0 0.0
2018-May-17 00:59N 29°16' W 094°27'0 0.0
2018-May-17 00:29N 29°16' W 094°27'0 0.0
2018-May-16 23:59N 29°16' W 094°27'0 0.0
2018-May-16 23:29N 29°16' W 094°27'0 0.0
2018-May-16 22:59N 29°16' W 094°27'0 0.0
2018-May-16 22:29N 29°16' W 094°27'0 0.0
2018-May-16 21:59N 29°16' W 094°27'0 0.0
2018-May-16 21:29N 29°16' W 094°27'0 0.0
2018-May-16 20:59N 29°16' W 094°27'0 0.0
2018-May-16 20:29N 29°16' W 094°27'0 0.1
2018-May-16 19:59N 29°16' W 094°27'0 0.1
2018-May-16 19:29N 29°16' W 094°27'  

Dump ship's entire track history